Algeciras, Spain
Current Conditions -  °F | °C
As of 5:00 AM on Sunday 21 Dec 2014 (Local Time) from LEAG Reporting Station
Overcast Overcast  
Wind Chill: 61°   Ceiling: 2800
Heat Index: 61°   Visibility: 6mi
Dew Point: 50°   Wind: 8mph
Humidity: 68%   Direction: 70°ENE
Pressure: 30.42"   Gusts: NA
Location:  36.13°N, 5.45°W
Report Text: LEAG 210400Z AUTO 07007KT 020V100 9999 OVC028 16/10 Q1030
Loading
Personal Weather Stations






























Interactive Weather Map New forecast layout! Learn more

10-Day Weather Forecast

Advertisements
Track Severe Weather on mobile